createdAt,value
2023-01-29T00:00:31.271Z,-12.01
2023-01-29T00:03:37.221Z,-11.93
2023-01-29T00:06:41.996Z,-11.86
2023-01-29T00:09:46.951Z,-11.84
2023-01-29T00:12:50.991Z,-11.83
2023-01-29T00:16:02.733Z,-11.80
2023-01-29T00:19:06.907Z,-11.73
2023-01-29T00:22:10.457Z,-11.61
2023-01-29T00:25:14.306Z,-11.52
2023-01-29T00:28:25.441Z,-11.39
2023-01-29T00:31:29.783Z,-11.30
2023-01-29T00:34:34.538Z,-11.25
2023-01-29T00:37:41.763Z,-11.18
2023-01-29T00:41:05.476Z,-11.10
2023-01-29T00:44:28.024Z,-10.96
2023-01-29T00:47:31.811Z,-10.91
2023-01-29T00:50:35.684Z,-10.76
2023-01-29T00:53:39.799Z,-10.79
2023-01-29T00:56:47.862Z,-10.66
2023-01-29T00:59:52.695Z,-10.41
2023-01-29T01:03:07.619Z,-10.27
2023-01-29T01:06:12.455Z,-10.09
2023-01-29T01:09:39.724Z,-9.95
2023-01-29T01:12:53.114Z,-9.71
2023-01-29T01:15:57.362Z,-9.52
2023-01-29T01:19:01.889Z,-9.45
2023-01-29T01:22:06.255Z,-9.50
2023-01-29T01:25:10.010Z,-9.30
2023-01-29T01:28:14.941Z,-9.37
2023-01-29T01:31:23.877Z,-9.34
2023-01-29T01:34:27.959Z,-9.16
2023-01-29T01:37:39.250Z,-8.95
2023-01-29T01:40:52.206Z,-8.95
2023-01-29T01:44:01.471Z,-8.91
2023-01-29T01:47:07.799Z,-8.68
2023-01-29T01:50:19.943Z,-8.50
2023-01-29T01:53:59.528Z,-8.40
2023-01-29T01:57:53.028Z,-8.30
2023-01-29T02:01:06.498Z,-8.50
2023-01-29T02:08:11.663Z,-8.96
2023-01-29T02:11:16.037Z,-8.96
2023-01-29T02:18:09.985Z,-9.33
2023-01-29T02:22:12.722Z,-9.51
2023-01-29T02:25:56.873Z,-9.51
2023-01-29T02:29:24.431Z,-9.59
2023-01-29T02:33:02.018Z,-9.72
2023-01-29T02:36:20.091Z,-9.73
2023-01-29T02:39:43.023Z,-9.73
2023-01-29T02:43:18.999Z,-9.56
2023-01-29T02:46:41.377Z,-9.44
2023-01-29T02:54:31.522Z,-8.95
2023-01-29T03:01:07.049Z,-8.61
2023-01-29T03:38:06.569Z,-7.54
2023-01-29T03:49:42.996Z,-7.31
2023-01-29T03:57:22.405Z,-7.16
2023-01-29T04:01:11.418Z,-7.05
2023-01-29T04:04:36.662Z,-6.96
2023-01-29T04:07:50.629Z,-6.82
2023-01-29T04:10:58.359Z,-6.74
2023-01-29T04:14:16.402Z,-6.64
2023-01-29T04:17:37.669Z,-6.53
2023-01-29T04:20:55.015Z,-6.50
2023-01-29T04:32:17.243Z,-6.36
2023-01-29T04:35:53.471Z,-6.29
2023-01-29T04:39:47.518Z,-6.23
2023-01-29T04:47:38.534Z,-6.16
2023-01-29T04:55:36.779Z,-6.09
2023-01-29T05:02:17.413Z,-6.01
2023-01-29T05:05:25.322Z,-5.99
2023-01-29T05:08:34.698Z,-5.87
2023-01-29T05:15:04.557Z,-5.69
2023-01-29T05:18:10.818Z,-5.60
2023-01-29T05:21:16.148Z,-5.54
2023-01-29T05:28:10.736Z,-5.57
2023-01-29T05:31:15.336Z,-5.49
2023-01-29T05:34:19.664Z,-5.43
2023-01-29T05:37:28.050Z,-5.37
2023-01-29T05:50:28.886Z,-5.36
2023-01-29T05:53:41.925Z,-5.39
2023-01-29T05:56:53.116Z,-5.43
2023-01-29T05:59:59.380Z,-5.43
2023-01-29T06:03:07.444Z,-5.32
2023-01-29T06:09:39.458Z,-5.30
2023-01-29T06:12:54.701Z,-5.36
2023-01-29T06:19:27.442Z,-5.42
2023-01-29T06:39:04.257Z,-4.98
2023-01-29T06:42:21.073Z,-4.87
2023-01-29T06:49:01.363Z,-5.02
2023-01-29T06:55:37.590Z,-5.04
2023-01-29T06:58:51.988Z,-5.05
2023-01-29T07:05:19.422Z,-4.91
2023-01-29T07:19:07.772Z,-4.64
2023-01-29T07:22:16.041Z,-4.77
2023-01-29T07:25:35.781Z,-4.95
2023-01-29T07:28:47.694Z,-5.25
2023-01-29T07:31:52.340Z,-5.46
2023-01-29T07:34:59.229Z,-5.57
2023-01-29T07:41:22.692Z,-5.54
2023-01-29T07:47:51.062Z,-5.29
2023-01-29T07:51:06.714Z,-5.25
2023-01-29T07:54:11.885Z,-5.32
2023-01-29T07:57:21.935Z,-5.40
2023-01-29T08:00:31.773Z,-5.44
2023-01-29T08:06:56.398Z,-5.42
2023-01-29T08:10:02.790Z,-5.40
2023-01-29T08:13:12.207Z,-5.46
2023-01-29T08:26:37.289Z,-5.81
2023-01-29T08:29:42.878Z,-5.85
2023-01-29T08:39:34.566Z,-6.08
2023-01-29T08:42:52.169Z,-6.20
2023-01-29T08:46:02.406Z,-6.30
2023-01-29T08:49:07.427Z,-6.46
2023-01-29T08:52:28.629Z,-6.60
2023-01-29T08:55:36.361Z,-6.71
2023-01-29T09:09:17.643Z,-7.18
2023-01-29T09:26:26.686Z,-7.44
2023-01-29T09:29:35.853Z,-7.50
2023-01-29T09:32:54.669Z,-7.52
2023-01-29T09:36:04.450Z,-7.55
2023-01-29T09:39:09.829Z,-7.61
2023-01-29T09:42:26.772Z,-7.67
2023-01-29T09:45:33.439Z,-7.71
2023-01-29T09:48:38.360Z,-7.78
2023-01-29T09:51:56.551Z,-7.82
2023-01-29T09:55:07.217Z,-7.91
2023-01-29T09:58:27.970Z,-7.89
2023-01-29T10:02:03.947Z,-7.92
2023-01-29T10:05:42.746Z,-7.98
2023-01-29T10:09:05.356Z,-8.03
2023-01-29T10:12:34.021Z,-8.12
2023-01-29T10:16:07.616Z,-8.19
2023-01-29T10:19:40.066Z,-8.24
2023-01-29T10:30:06.247Z,-8.34
2023-01-29T10:40:22.490Z,-8.58
2023-01-29T10:47:33.727Z,-9.12
2023-01-29T10:51:02.918Z,-9.38
2023-01-29T10:54:33.894Z,-9.55
2023-01-29T11:04:33.115Z,-9.65
2023-01-29T11:07:38.118Z,-9.56
2023-01-29T11:14:48.855Z,-9.59
2023-01-29T11:18:22.785Z,-9.69
2023-01-29T11:21:28.909Z,-9.76
2023-01-29T11:24:35.617Z,-9.88
2023-01-29T11:27:46.935Z,-9.99
2023-01-29T11:30:54.916Z,-10.03
2023-01-29T11:34:29.543Z,-10.14
2023-01-29T11:37:39.221Z,-10.24
2023-01-29T11:40:43.783Z,-10.37
2023-01-29T11:43:50.534Z,-10.46
2023-01-29T11:50:25.396Z,-10.44
2023-01-29T11:53:42.828Z,-10.49
2023-01-29T12:00:30.211Z,-10.72
2023-01-29T12:10:40.023Z,-11.11
2023-01-29T12:13:57.435Z,-11.07
2023-01-29T12:17:11.021Z,-11.11
2023-01-29T12:20:27.344Z,-11.16
2023-01-29T12:31:19.468Z,-11.07
2023-01-29T12:34:41.721Z,-11.21
2023-01-29T12:38:06.013Z,-11.20
2023-01-29T12:41:35.210Z,-11.32
2023-01-29T12:44:55.772Z,-11.34
2023-01-29T12:58:43.128Z,-11.55
2023-01-29T13:01:57.947Z,-11.58
2023-01-29T13:05:37.653Z,-11.69
2023-01-29T13:08:54.808Z,-11.86
2023-01-29T13:12:19.660Z,-12.02
2023-01-29T13:15:40.316Z,-12.14
2023-01-29T13:19:03.902Z,-12.18
2023-01-29T13:22:21.844Z,-12.36
2023-01-29T13:28:47.429Z,-12.41
2023-01-29T13:32:15.051Z,-12.53
2023-01-29T13:38:45.754Z,-12.65
2023-01-29T13:41:52.058Z,-12.70
2023-01-29T13:45:03.054Z,-12.84
2023-01-29T13:48:39.174Z,-12.91
2023-01-29T13:51:45.100Z,-13.00
2023-01-29T13:55:29.065Z,-12.93
2023-01-29T13:58:37.201Z,-12.87
2023-01-29T14:01:52.496Z,-12.88
2023-01-29T14:05:50.441Z,-13.00
2023-01-29T14:09:03.057Z,-12.98
2023-01-29T14:12:33.826Z,-13.05
2023-01-29T14:15:45.121Z,-13.08
2023-01-29T14:19:05.388Z,-13.12
2023-01-29T14:22:24.537Z,-13.22
2023-01-29T14:25:42.779Z,-13.23
2023-01-29T14:29:16.511Z,-13.19
2023-01-29T14:32:56.761Z,-13.42
2023-01-29T14:36:07.685Z,-13.44
2023-01-29T14:46:40.939Z,-13.79
2023-01-29T14:54:37.265Z,-13.68
2023-01-29T14:57:42.174Z,-13.81
2023-01-29T15:01:01.422Z,-13.92
2023-01-29T15:07:51.300Z,-14.19
2023-01-29T15:18:14.836Z,-14.32
2023-01-29T15:21:20.102Z,-14.26
2023-01-29T15:24:32.727Z,-14.16
2023-01-29T15:27:37.627Z,-14.11
2023-01-29T15:30:44.852Z,-14.26
2023-01-29T15:33:55.844Z,-14.43
2023-01-29T15:37:06.924Z,-14.50
2023-01-29T15:40:18.923Z,-14.56
2023-01-29T15:43:34.667Z,-14.56
2023-01-29T15:46:41.643Z,-14.61
2023-01-29T15:49:48.547Z,-14.77
2023-01-29T15:52:59.543Z,-14.88
2023-01-29T16:02:42.891Z,-14.56
2023-01-29T16:05:47.447Z,-14.57
2023-01-29T16:09:00.315Z,-14.44
2023-01-29T16:12:05.035Z,-14.50
2023-01-29T16:15:21.983Z,-14.50
2023-01-29T16:18:36.494Z,-14.71
2023-01-29T16:21:48.515Z,-14.84
2023-01-29T16:24:55.568Z,-15.06
2023-01-29T16:28:00.979Z,-15.22
2023-01-29T16:31:05.830Z,-15.27
2023-01-29T16:34:17.787Z,-15.30
2023-01-29T16:37:33.547Z,-15.23
2023-01-29T16:40:39.678Z,-15.07
2023-01-29T16:43:58.943Z,-15.09
2023-01-29T16:47:26.908Z,-15.03
2023-01-29T16:50:54.008Z,-14.91
2023-01-29T16:54:19.958Z,-14.98
2023-01-29T16:57:34.032Z,-15.13
2023-01-29T17:00:38.411Z,-15.24
2023-01-29T17:03:50.459Z,-15.24
2023-01-29T17:07:00.114Z,-15.36
2023-01-29T17:10:06.725Z,-15.51
2023-01-29T17:13:20.762Z,-15.61
2023-01-29T17:16:36.668Z,-15.61
2023-01-29T17:19:42.114Z,-15.69
2023-01-29T17:22:48.713Z,-15.86
2023-01-29T17:26:00.482Z,-15.99
2023-01-29T17:29:08.696Z,-15.96
2023-01-29T17:32:16.916Z,-15.97
2023-01-29T17:35:23.413Z,-15.86
2023-01-29T17:38:27.907Z,-15.76
2023-01-29T17:41:33.696Z,-15.89
2023-01-29T17:47:56.662Z,-16.14
2023-01-29T17:51:08.672Z,-16.17
2023-01-29T18:00:46.687Z,-16.13
2023-01-29T18:03:51.763Z,-16.32
2023-01-29T18:07:02.015Z,-16.45
2023-01-29T18:10:09.035Z,-16.48
2023-01-29T18:13:21.593Z,-16.49
2023-01-29T18:19:46.508Z,-16.55
2023-01-29T18:22:54.804Z,-16.66
2023-01-29T18:25:59.210Z,-16.62
2023-01-29T18:35:38.748Z,-16.48
2023-01-29T18:38:46.566Z,-16.51
2023-01-29T18:41:52.960Z,-16.62
2023-01-29T18:44:56.693Z,-16.66
2023-01-29T18:48:01.996Z,-16.73
2023-01-29T18:51:06.726Z,-16.80
2023-01-29T18:54:15.384Z,-16.89
2023-01-29T18:58:25.067Z,-16.73
2023-01-29T19:00:44.049Z,-16.72
2023-01-29T19:10:24.158Z,-16.75
2023-01-29T19:13:28.311Z,-17.15
2023-01-29T19:16:34.269Z,-17.32
2023-01-29T19:19:38.365Z,-17.31
2023-01-29T19:22:45.948Z,-17.45
2023-01-29T19:25:51.701Z,-17.48
2023-01-29T19:29:02.389Z,-17.43
2023-01-29T19:32:06.447Z,-17.41
2023-01-29T19:35:16.177Z,-17.38
2023-01-29T19:38:22.219Z,-17.55
2023-01-29T19:41:28.347Z,-17.62
2023-01-29T19:44:32.544Z,-17.66
2023-01-29T19:47:44.323Z,-17.49
2023-01-29T19:54:14.953Z,-17.39
2023-01-29T19:57:19.092Z,-17.43
2023-01-29T20:00:23.531Z,-17.38
2023-01-29T20:03:28.292Z,-17.39
2023-01-29T20:06:32.479Z,-17.30
2023-01-29T20:09:36.201Z,-17.38
2023-01-29T20:12:41.875Z,-17.39
2023-01-29T20:15:55.091Z,-17.55
2023-01-29T20:22:20.570Z,-17.41
2023-01-29T20:25:31.711Z,-17.49
2023-01-29T20:28:37.084Z,-17.42
2023-01-29T20:31:40.469Z,-17.45
2023-01-29T20:34:48.761Z,-17.42
2023-01-29T20:37:53.908Z,-17.42
2023-01-29T20:41:16.470Z,-17.41
2023-01-29T20:44:27.666Z,-17.30
2023-01-29T20:47:32.403Z,-17.43
2023-01-29T20:50:39.830Z,-17.66
2023-01-29T20:53:47.647Z,-17.63
2023-01-29T21:00:12.108Z,-17.83
2023-01-29T21:03:18.868Z,-17.97
2023-01-29T21:09:54.227Z,-17.98
2023-01-29T21:13:01.899Z,-18.04
2023-01-29T21:16:06.161Z,-18.22
2023-01-29T21:19:11.533Z,-18.25
2023-01-29T21:22:17.911Z,-18.26
2023-01-29T21:25:22.441Z,-18.11
2023-01-29T21:28:26.540Z,-18.12
2023-01-29T21:31:34.877Z,-18.19
2023-01-29T21:34:39.123Z,-18.11
2023-01-29T21:41:12.134Z,-18.15
2023-01-29T21:44:17.387Z,-18.11
2023-01-29T21:47:23.645Z,-18.21
2023-01-29T21:53:44.724Z,-18.40
2023-01-29T21:56:51.467Z,-18.36
2023-01-29T21:59:58.902Z,-18.29
2023-01-29T22:03:02.904Z,-18.39
2023-01-29T22:06:11.275Z,-18.65
2023-01-29T22:09:18.167Z,-18.99
2023-01-29T22:15:39.328Z,-18.77
2023-01-29T22:18:44.640Z,-18.74
2023-01-29T22:21:53.063Z,-18.60
2023-01-29T22:25:00.903Z,-18.60
2023-01-29T22:28:09.055Z,-18.59
2023-01-29T22:34:35.435Z,-19.09
2023-01-29T22:51:18.857Z,-18.60
2023-01-29T23:01:03.124Z,-18.53
2023-01-29T23:30:38.972Z,-18.39
2023-01-29T23:40:21.530Z,-18.37
2023-01-29T23:43:30.246Z,-18.29
2023-01-29T23:53:11.142Z,-18.28
2023-01-29T23:59:42.904Z,-18.29
